createdAt,value
2024-01-30T00:00:41.954Z,60.00
2024-01-30T00:03:15.635Z,59.70
2024-01-30T00:05:49.075Z,61.07
2024-01-30T00:08:25.481Z,59.70
2024-01-30T00:10:58.752Z,59.67
2024-01-30T00:13:31.842Z,58.77
2024-01-30T00:16:06.733Z,60.40
2024-01-30T00:18:40.621Z,58.73
2024-01-30T00:21:14.467Z,59.10
2024-01-30T00:23:49.785Z,58.03
2024-01-30T00:26:23.534Z,59.43
2024-01-30T00:28:56.622Z,56.87
2024-01-30T00:31:29.820Z,58.83
2024-01-30T00:34:03.141Z,59.13
2024-01-30T00:36:36.899Z,59.40
2024-01-30T00:39:12.215Z,59.50
2024-01-30T00:41:45.497Z,61.37
2024-01-30T00:44:19.037Z,57.93
2024-01-30T00:46:52.546Z,59.10
2024-01-30T00:49:26.292Z,59.30
2024-01-30T00:52:00.203Z,58.57
2024-01-30T00:54:35.617Z,58.07
2024-01-30T00:57:09.873Z,57.83
2024-01-30T00:59:43.273Z,59.93
2024-01-30T01:02:18.016Z,59.67
2024-01-30T01:04:51.699Z,59.53
2024-01-30T01:07:25.149Z,60.23
2024-01-30T01:10:01.218Z,58.63
2024-01-30T01:12:34.710Z,61.37
2024-01-30T01:15:08.029Z,60.70
2024-01-30T01:17:41.665Z,61.10
2024-01-30T01:20:15.958Z,59.67
2024-01-30T01:22:49.922Z,58.70
2024-01-30T01:25:25.495Z,59.50
2024-01-30T01:27:59.051Z,61.23
2024-01-30T01:30:32.953Z,59.60
2024-01-30T01:33:06.216Z,60.23
2024-01-30T01:35:40.055Z,59.33
2024-01-30T01:38:13.303Z,62.00
2024-01-30T01:40:48.693Z,64.40
2024-01-30T01:43:22.207Z,61.10
2024-01-30T01:45:55.602Z,61.30
2024-01-30T01:48:29.177Z,61.87
2024-01-30T01:51:03.337Z,61.37
2024-01-30T01:53:37.024Z,62.67
2024-01-30T01:56:13.813Z,61.90
2024-01-30T01:59:05.350Z,60.60
2024-01-30T02:01:39.364Z,58.60
2024-01-30T02:04:12.941Z,60.70
2024-01-30T02:06:46.459Z,59.37
2024-01-30T02:09:19.929Z,59.77
2024-01-30T02:11:56.142Z,59.43
2024-01-30T02:14:31.220Z,60.70
2024-01-30T02:17:04.894Z,56.87
2024-01-30T02:19:38.414Z,58.77
2024-01-30T02:22:15.535Z,56.20
2024-01-30T02:24:48.820Z,55.80
2024-01-30T02:27:22.879Z,59.40
2024-01-30T02:29:56.501Z,56.60
2024-01-30T02:32:30.956Z,56.90
2024-01-30T02:35:04.737Z,54.97
2024-01-30T02:37:40.919Z,53.73
2024-01-30T02:40:16.080Z,51.33
2024-01-30T02:42:50.277Z,53.37
2024-01-30T02:45:25.252Z,53.43
2024-01-30T02:47:59.100Z,52.57
2024-01-30T02:50:32.484Z,50.97
2024-01-30T02:53:08.015Z,50.40
2024-01-30T02:55:41.593Z,51.00
2024-01-30T02:58:15.256Z,51.07
2024-01-30T03:00:50.927Z,52.47
2024-01-30T03:03:24.805Z,50.50
2024-01-30T03:05:58.989Z,50.07
2024-01-30T03:08:34.672Z,50.87
2024-01-30T03:11:08.051Z,51.57
2024-01-30T03:13:41.186Z,51.60
2024-01-30T03:16:15.393Z,50.53
2024-01-30T03:18:49.674Z,52.17
2024-01-30T03:21:23.421Z,49.63
2024-01-30T03:23:59.533Z,48.83
2024-01-30T03:26:32.717Z,49.33
2024-01-30T03:29:06.143Z,48.70
2024-01-30T03:31:38.644Z,50.67
2024-01-30T03:34:11.913Z,47.57
2024-01-30T03:36:45.272Z,48.70
2024-01-30T03:39:21.157Z,48.73
2024-01-30T03:41:54.678Z,49.90
2024-01-30T03:44:28.024Z,47.30
2024-01-30T03:47:01.253Z,48.57
2024-01-30T03:49:34.820Z,49.47
2024-01-30T03:52:08.429Z,48.97
2024-01-30T03:54:43.451Z,47.83
2024-01-30T03:57:17.074Z,48.67
2024-01-30T03:59:50.575Z,47.87
2024-01-30T04:02:24.600Z,47.00
2024-01-30T04:04:58.180Z,48.37
2024-01-30T04:07:32.037Z,49.10
2024-01-30T04:10:08.423Z,47.83
2024-01-30T04:12:42.047Z,49.97
2024-01-30T04:15:16.016Z,48.60
2024-01-30T04:17:49.712Z,46.97
2024-01-30T04:20:23.473Z,47.93
2024-01-30T04:22:57.135Z,47.27
2024-01-30T04:25:32.912Z,45.20
2024-01-30T04:28:06.148Z,49.03
2024-01-30T04:30:39.488Z,47.50
2024-01-30T04:33:13.822Z,48.53
2024-01-30T04:35:47.493Z,48.70
2024-01-30T04:38:21.082Z,48.97
2024-01-30T04:40:56.665Z,47.93
2024-01-30T04:43:30.848Z,47.13
2024-01-30T04:46:04.553Z,47.50
2024-01-30T04:51:27.389Z,47.27
2024-01-30T04:54:00.628Z,47.33
2024-01-30T04:56:36.343Z,49.13
2024-01-30T04:59:11.087Z,48.73
2024-01-30T05:01:44.232Z,45.80
2024-01-30T05:04:17.947Z,47.37
2024-01-30T05:06:51.639Z,46.97
2024-01-30T05:09:25.046Z,47.30
2024-01-30T05:12:00.633Z,46.87
2024-01-30T05:14:36.551Z,47.07
2024-01-30T05:17:10.389Z,43.73
2024-01-30T05:19:45.122Z,43.93
2024-01-30T05:22:21.485Z,44.57
2024-01-30T05:24:55.598Z,46.10
2024-01-30T05:27:31.348Z,43.67
2024-01-30T05:30:04.469Z,47.83
2024-01-30T05:32:37.881Z,44.63
2024-01-30T05:35:11.594Z,46.50
2024-01-30T05:37:45.462Z,45.70
2024-01-30T05:40:19.528Z,47.13
2024-01-30T05:42:55.566Z,47.77
2024-01-30T05:45:29.070Z,47.03
2024-01-30T05:48:02.690Z,46.73
2024-01-30T05:50:36.153Z,46.33
2024-01-30T05:53:09.886Z,45.60
2024-01-30T05:55:43.401Z,47.90
2024-01-30T05:58:19.087Z,46.33
2024-01-30T06:00:52.522Z,45.07
2024-01-30T06:03:26.741Z,46.43
2024-01-30T06:06:00.492Z,45.70
2024-01-30T06:08:34.084Z,45.63
2024-01-30T06:11:25.814Z,47.60
2024-01-30T06:14:01.331Z,46.03
2024-01-30T06:16:34.500Z,46.63
2024-01-30T06:19:08.530Z,48.57
2024-01-30T06:21:41.871Z,47.93
2024-01-30T06:24:15.264Z,46.47
2024-01-30T06:26:48.998Z,48.13
2024-01-30T06:29:23.949Z,47.57
2024-01-30T06:31:57.467Z,49.00
2024-01-30T06:34:31.295Z,48.47
2024-01-30T06:37:05.046Z,48.23
2024-01-30T06:39:38.342Z,48.33
2024-01-30T06:42:11.726Z,49.00
2024-01-30T06:44:47.409Z,48.00
2024-01-30T06:47:20.682Z,48.93
2024-01-30T06:49:54.274Z,50.37
2024-01-30T06:52:28.185Z,50.23
2024-01-30T06:55:01.477Z,49.60
2024-01-30T06:57:34.935Z,50.27
2024-01-30T07:00:11.167Z,50.57
2024-01-30T07:02:45.289Z,49.43
2024-01-30T07:05:20.232Z,48.70
2024-01-30T07:07:53.546Z,50.43
2024-01-30T07:10:27.435Z,49.10
2024-01-30T07:13:01.936Z,51.43
2024-01-30T07:15:37.369Z,51.40
2024-01-30T07:18:12.309Z,50.97
2024-01-30T07:20:49.089Z,50.67
2024-01-30T07:23:22.753Z,52.43
2024-01-30T07:25:56.513Z,52.13
2024-01-30T07:28:29.927Z,52.37
2024-01-30T07:31:05.996Z,52.60
2024-01-30T07:33:39.409Z,51.03
2024-01-30T07:36:13.283Z,52.10
2024-01-30T07:38:46.566Z,52.93
2024-01-30T07:41:20.635Z,52.67
2024-01-30T07:43:55.040Z,51.93
2024-01-30T07:46:30.601Z,55.17
2024-01-30T07:49:04.879Z,54.33
2024-01-30T07:51:38.756Z,54.67
2024-01-30T07:54:18.812Z,53.27
2024-01-30T07:56:52.476Z,54.33
2024-01-30T07:59:27.348Z,56.53
2024-01-30T08:02:03.548Z,55.03
2024-01-30T08:04:37.561Z,55.27
2024-01-30T08:07:11.004Z,56.40
2024-01-30T08:09:46.442Z,53.97
2024-01-30T08:12:19.837Z,55.43
2024-01-30T08:14:53.529Z,55.73
2024-01-30T08:17:29.521Z,55.60
2024-01-30T08:20:04.086Z,56.07
2024-01-30T08:22:38.341Z,56.97
2024-01-30T08:25:12.577Z,55.13
2024-01-30T08:27:46.484Z,57.23
2024-01-30T08:30:21.033Z,57.57
2024-01-30T08:32:57.703Z,56.83
2024-01-30T08:35:34.402Z,58.53
2024-01-30T08:38:08.380Z,56.03
2024-01-30T08:40:42.144Z,56.40
2024-01-30T08:43:15.986Z,56.67
2024-01-30T08:45:49.445Z,56.17
2024-01-30T08:48:25.657Z,57.03
2024-01-30T08:50:59.183Z,59.40
2024-01-30T08:53:33.506Z,58.23
2024-01-30T08:56:07.529Z,57.37
2024-01-30T08:58:49.384Z,58.20
2024-01-30T09:01:24.818Z,58.63
2024-01-30T09:04:00.594Z,59.80
2024-01-30T09:06:34.297Z,58.80
2024-01-30T09:09:07.486Z,57.53
2024-01-30T09:11:41.803Z,58.20
2024-01-30T09:14:15.270Z,60.67
2024-01-30T09:16:48.385Z,59.80
2024-01-30T09:19:35.905Z,57.73
2024-01-30T09:22:09.527Z,60.90
2024-01-30T09:25:03.038Z,61.50
2024-01-30T09:27:36.657Z,58.23
2024-01-30T09:30:15.086Z,61.10
2024-01-30T09:33:00.307Z,59.03
2024-01-30T09:35:41.913Z,59.57
2024-01-30T09:38:15.623Z,64.77
2024-01-30T09:40:49.432Z,65.07
2024-01-30T09:43:27.209Z,63.20
2024-01-30T09:46:01.629Z,60.13
2024-01-30T09:48:36.248Z,60.30
2024-01-30T09:51:11.461Z,58.43
2024-01-30T09:53:46.815Z,57.33
2024-01-30T09:56:20.216Z,60.93
2024-01-30T09:58:53.791Z,58.60
2024-01-30T10:01:27.505Z,59.90
2024-01-30T10:04:01.070Z,60.37
2024-01-30T10:06:36.380Z,59.33
2024-01-30T10:09:09.798Z,61.60
2024-01-30T10:11:43.041Z,58.90
2024-01-30T10:14:16.200Z,59.63
2024-01-30T10:16:52.286Z,58.63
2024-01-30T10:19:25.710Z,59.97
2024-01-30T10:22:00.852Z,59.23
2024-01-30T10:24:34.593Z,61.37
2024-01-30T10:27:08.144Z,58.70
2024-01-30T10:29:43.635Z,62.70
2024-01-30T10:32:16.959Z,59.33
2024-01-30T10:34:50.557Z,58.83
2024-01-30T10:37:28.664Z,59.80
2024-01-30T10:40:18.254Z,60.53
2024-01-30T10:43:01.234Z,58.93
2024-01-30T10:45:36.232Z,61.27
2024-01-30T10:48:12.060Z,59.23
2024-01-30T10:50:51.073Z,61.60
2024-01-30T10:53:34.113Z,60.07
2024-01-30T10:56:09.139Z,59.60
2024-01-30T10:58:42.525Z,59.97
2024-01-30T11:01:16.887Z,62.00
2024-01-30T11:03:50.178Z,61.73
2024-01-30T11:06:25.099Z,58.37
2024-01-30T11:09:12.185Z,61.70
2024-01-30T11:12:02.526Z,60.63
2024-01-30T11:14:37.139Z,61.93
2024-01-30T11:17:10.670Z,63.90
2024-01-30T11:19:44.940Z,62.43
2024-01-30T11:22:18.360Z,64.27
2024-01-30T11:24:53.949Z,62.67
2024-01-30T11:27:29.298Z,64.77
2024-01-30T11:30:07.851Z,65.57
2024-01-30T11:32:41.621Z,66.37
2024-01-30T11:35:16.794Z,66.37
2024-01-30T11:37:51.796Z,64.93
2024-01-30T11:40:28.759Z,63.07
2024-01-30T11:43:02.916Z,64.93
2024-01-30T11:45:37.300Z,63.57
2024-01-30T11:48:13.156Z,65.23
2024-01-30T11:50:47.063Z,66.77
2024-01-30T11:53:20.664Z,65.00
2024-01-30T11:56:03.136Z,66.03
2024-01-30T11:58:36.425Z,68.40
2024-01-30T12:01:10.008Z,67.23
2024-01-30T12:03:44.145Z,68.03
2024-01-30T12:06:17.601Z,65.10
2024-01-30T12:09:03.105Z,67.80
2024-01-30T12:11:38.590Z,66.83
2024-01-30T12:14:11.797Z,69.50
2024-01-30T12:16:45.954Z,67.77
2024-01-30T12:19:28.521Z,71.40
2024-01-30T12:22:03.658Z,70.47
2024-01-30T12:24:37.273Z,70.20
2024-01-30T12:27:12.971Z,73.30
2024-01-30T12:29:48.586Z,68.13
2024-01-30T12:33:13.664Z,71.03
2024-01-30T12:35:58.646Z,70.80
2024-01-30T12:38:36.384Z,71.27
2024-01-30T12:41:09.823Z,73.87
2024-01-30T12:43:44.995Z,70.40
2024-01-30T12:46:18.437Z,71.03
2024-01-30T12:48:52.058Z,71.63
2024-01-30T12:51:25.309Z,75.40
2024-01-30T12:53:59.222Z,74.10
2024-01-30T12:56:33.092Z,75.40
2024-01-30T12:59:08.526Z,71.57
2024-01-30T13:01:43.467Z,74.40
2024-01-30T13:04:17.756Z,72.57
2024-01-30T13:06:51.406Z,73.77
2024-01-30T13:09:25.156Z,74.30
2024-01-30T13:11:58.563Z,74.50
2024-01-30T13:14:34.954Z,72.03
2024-01-30T13:17:09.329Z,73.43
2024-01-30T13:19:42.734Z,74.77
2024-01-30T13:22:16.400Z,71.03
2024-01-30T13:24:49.736Z,71.70
2024-01-30T13:27:23.966Z,73.40
2024-01-30T13:30:01.080Z,73.10
2024-01-30T13:32:38.719Z,71.73
2024-01-30T13:35:12.987Z,73.37
2024-01-30T13:37:46.554Z,75.67
2024-01-30T13:40:20.307Z,72.30
2024-01-30T13:42:53.686Z,73.27
2024-01-30T13:45:30.551Z,73.90
2024-01-30T13:48:05.942Z,73.93
2024-01-30T13:50:39.371Z,72.70
2024-01-30T13:53:12.690Z,72.97
2024-01-30T13:55:48.224Z,74.43
2024-01-30T13:58:21.518Z,73.83
2024-01-30T14:00:56.921Z,75.40
2024-01-30T14:03:30.703Z,72.90
2024-01-30T14:06:05.136Z,72.47
2024-01-30T14:08:38.881Z,76.83
2024-01-30T14:11:13.142Z,75.87
2024-01-30T14:13:46.670Z,72.57
2024-01-30T14:16:22.305Z,73.23
2024-01-30T14:18:55.772Z,76.03
2024-01-30T14:21:30.259Z,73.13
2024-01-30T14:24:03.991Z,73.30
2024-01-30T14:26:38.712Z,75.60
2024-01-30T14:29:12.673Z,75.23
2024-01-30T14:31:49.122Z,73.73
2024-01-30T14:34:25.158Z,72.67
2024-01-30T14:37:01.366Z,74.27
2024-01-30T14:39:35.244Z,72.57
2024-01-30T14:42:08.718Z,75.47
2024-01-30T14:44:42.987Z,72.23
2024-01-30T14:47:18.468Z,74.30
2024-01-30T14:49:52.138Z,74.93
2024-01-30T14:52:25.840Z,77.30
2024-01-30T14:54:59.602Z,76.30
2024-01-30T14:57:33.304Z,77.50
2024-01-30T15:00:07.313Z,77.37
2024-01-30T15:02:42.590Z,74.70
2024-01-30T15:05:16.463Z,73.20
2024-01-30T15:07:50.138Z,74.60
2024-01-30T15:10:23.711Z,74.07
2024-01-30T15:12:57.059Z,75.43
2024-01-30T15:15:31.005Z,75.20
2024-01-30T15:18:06.887Z,75.33
2024-01-30T15:20:40.233Z,77.10
2024-01-30T15:23:16.660Z,76.43
2024-01-30T15:25:50.679Z,75.70
2024-01-30T15:28:27.604Z,76.70
2024-01-30T15:31:03.047Z,74.43
2024-01-30T15:33:39.081Z,74.70
2024-01-30T15:36:12.843Z,77.20
2024-01-30T15:38:49.657Z,77.47
2024-01-30T15:41:23.963Z,77.53
2024-01-30T15:44:01.880Z,78.27
2024-01-30T15:46:36.239Z,77.20
2024-01-30T15:49:11.620Z,76.17
2024-01-30T15:51:44.873Z,76.77
2024-01-30T15:54:18.369Z,76.37
2024-01-30T15:56:51.933Z,77.83
2024-01-30T15:59:25.321Z,76.43
2024-01-30T16:01:59.753Z,77.67
2024-01-30T16:04:35.472Z,77.87
2024-01-30T16:07:09.354Z,78.57
2024-01-30T16:09:42.666Z,78.47
2024-01-30T16:12:16.172Z,77.90
2024-01-30T16:14:49.758Z,77.30
2024-01-30T16:17:22.968Z,76.07
2024-01-30T16:19:58.974Z,77.57
2024-01-30T16:22:32.791Z,77.33
2024-01-30T16:25:06.782Z,79.83
2024-01-30T16:27:40.388Z,78.93
2024-01-30T16:30:14.804Z,79.00
2024-01-30T16:32:48.361Z,79.23
2024-01-30T16:35:44.032Z,80.23
2024-01-30T16:38:17.653Z,78.70
2024-01-30T16:40:52.472Z,79.50
2024-01-30T16:43:26.117Z,80.77
2024-01-30T16:45:59.951Z,80.03
2024-01-30T16:48:33.730Z,80.10
2024-01-30T16:51:09.284Z,80.57
2024-01-30T16:53:43.016Z,80.23
2024-01-30T16:56:17.111Z,80.33
2024-01-30T16:58:50.588Z,80.30
2024-01-30T17:01:24.038Z,81.17
2024-01-30T17:03:58.106Z,81.27
2024-01-30T17:06:33.922Z,79.90
2024-01-30T17:09:08.187Z,80.37
2024-01-30T17:11:41.428Z,82.27
2024-01-30T17:14:16.469Z,84.17
2024-01-30T17:16:54.453Z,82.10
2024-01-30T17:19:34.456Z,79.97
2024-01-30T17:22:10.416Z,82.50
2024-01-30T17:24:49.926Z,82.87
2024-01-30T17:27:24.384Z,81.47
2024-01-30T17:29:58.620Z,82.07
2024-01-30T17:32:32.061Z,80.97
2024-01-30T17:35:06.094Z,81.10
2024-01-30T17:37:42.634Z,80.80
2024-01-30T17:40:17.418Z,83.87
2024-01-30T17:42:50.975Z,82.27
2024-01-30T17:45:24.421Z,78.83
2024-01-30T17:47:58.083Z,82.70
2024-01-30T17:50:31.402Z,82.10
2024-01-30T17:53:07.165Z,80.87
2024-01-30T17:55:40.525Z,80.27
2024-01-30T17:58:14.231Z,80.50
2024-01-30T18:00:47.679Z,79.83
2024-01-30T18:03:20.982Z,81.93
2024-01-30T18:05:54.304Z,80.83
2024-01-30T18:08:29.727Z,84.77
2024-01-30T18:11:04.234Z,81.03
2024-01-30T18:13:38.524Z,79.50
2024-01-30T18:16:12.478Z,78.13
2024-01-30T18:18:46.119Z,78.67
2024-01-30T18:21:19.869Z,83.30
2024-01-30T18:23:56.868Z,81.27
2024-01-30T18:26:30.880Z,79.87
2024-01-30T18:29:05.033Z,81.40
2024-01-30T18:31:38.330Z,81.30
2024-01-30T18:34:12.063Z,80.20
2024-01-30T18:36:46.960Z,77.47
2024-01-30T18:39:23.796Z,82.27
2024-01-30T18:41:57.372Z,81.90
2024-01-30T18:44:31.552Z,79.80
2024-01-30T18:47:05.143Z,79.27
2024-01-30T18:49:39.756Z,81.57
2024-01-30T18:52:13.070Z,81.93
2024-01-30T18:54:48.691Z,80.63
2024-01-30T18:57:22.135Z,80.70
2024-01-30T18:59:56.909Z,85.17
2024-01-30T19:02:30.567Z,81.00
2024-01-30T19:05:04.549Z,84.83
2024-01-30T19:07:38.355Z,79.07
2024-01-30T19:10:16.835Z,83.73
2024-01-30T19:12:54.884Z,81.53
2024-01-30T19:15:29.427Z,82.57
2024-01-30T19:18:03.727Z,77.27
2024-01-30T19:20:37.304Z,80.83
2024-01-30T19:23:12.132Z,80.90
2024-01-30T19:25:49.209Z,83.10
2024-01-30T19:28:23.537Z,81.47
2024-01-30T19:30:57.238Z,81.37
2024-01-30T19:33:30.840Z,83.50
2024-01-30T19:36:04.790Z,83.37
2024-01-30T19:38:38.263Z,81.63
2024-01-30T19:41:17.531Z,82.50
2024-01-30T19:43:50.870Z,82.37
2024-01-30T19:46:24.419Z,78.13
2024-01-30T19:48:58.072Z,80.93
2024-01-30T19:51:32.110Z,85.80
2024-01-30T19:54:05.875Z,79.07
2024-01-30T19:56:41.640Z,83.10
2024-01-30T19:59:14.946Z,82.47
2024-01-30T20:01:49.792Z,81.63
2024-01-30T20:04:23.172Z,80.47
2024-01-30T20:06:56.776Z,81.57
2024-01-30T20:09:31.328Z,80.90
2024-01-30T20:12:07.712Z,80.97
2024-01-30T20:14:41.176Z,81.33
2024-01-30T20:17:16.927Z,81.77
2024-01-30T20:19:51.264Z,82.83
2024-01-30T20:22:24.814Z,81.00
2024-01-30T20:25:04.323Z,79.73
2024-01-30T20:27:46.769Z,82.00
2024-01-30T20:30:24.727Z,82.70
2024-01-30T20:33:00.144Z,82.33
2024-01-30T20:35:33.763Z,80.93
2024-01-30T20:38:06.940Z,83.37
2024-01-30T20:40:41.718Z,82.90
2024-01-30T20:43:17.025Z,83.87
2024-01-30T20:45:51.017Z,82.37
2024-01-30T20:48:25.287Z,81.33
2024-01-30T20:50:58.796Z,82.20
2024-01-30T20:53:32.027Z,83.13
2024-01-30T20:56:05.333Z,84.80
2024-01-30T20:58:40.935Z,82.83
2024-01-30T21:01:14.620Z,83.97
2024-01-30T21:03:49.331Z,83.43
2024-01-30T21:06:23.388Z,85.63
2024-01-30T21:08:56.628Z,83.87
2024-01-30T21:11:30.185Z,84.93
2024-01-30T21:14:06.525Z,85.37
2024-01-30T21:16:39.988Z,89.03
2024-01-30T21:19:14.265Z,84.10
2024-01-30T21:21:47.545Z,89.07
2024-01-30T21:24:21.521Z,86.23
2024-01-30T21:26:55.715Z,86.63
2024-01-30T21:29:30.980Z,87.00
2024-01-30T21:32:20.174Z,85.30
2024-01-30T21:34:54.061Z,86.20
2024-01-30T21:37:27.322Z,86.87
2024-01-30T21:40:00.870Z,88.17
2024-01-30T21:42:34.483Z,87.03
2024-01-30T21:45:10.483Z,87.87
2024-01-30T21:47:44.050Z,89.67
2024-01-30T21:50:19.048Z,86.30
2024-01-30T21:52:52.609Z,87.07
2024-01-30T21:55:26.278Z,85.77
2024-01-30T21:58:00.055Z,90.17
2024-01-30T22:00:35.535Z,86.97
2024-01-30T22:03:09.125Z,89.27
2024-01-30T22:05:42.724Z,89.77
2024-01-30T22:08:16.294Z,90.43
2024-01-30T22:10:49.567Z,88.63
2024-01-30T22:13:24.729Z,88.53
2024-01-30T22:16:01.269Z,86.27
2024-01-30T22:18:34.617Z,88.50
2024-01-30T22:21:10.125Z,84.50
2024-01-30T22:23:43.429Z,90.90
2024-01-30T22:26:16.719Z,87.80
2024-01-30T22:28:50.260Z,87.70
2024-01-30T22:31:25.439Z,85.63
2024-01-30T22:33:58.782Z,87.73
2024-01-30T22:36:32.107Z,89.17
2024-01-30T22:39:09.802Z,89.27
2024-01-30T22:41:43.519Z,89.07
2024-01-30T22:44:17.775Z,87.27
2024-01-30T22:46:53.453Z,91.50
2024-01-30T22:49:26.955Z,90.50
2024-01-30T22:52:00.404Z,88.83
2024-01-30T22:54:34.646Z,89.83
2024-01-30T22:57:08.074Z,89.77
2024-01-30T22:59:42.553Z,90.33
2024-01-30T23:02:17.850Z,89.57
2024-01-30T23:04:52.099Z,89.07
2024-01-30T23:07:26.234Z,91.90
2024-01-30T23:10:00.021Z,88.53
2024-01-30T23:12:50.814Z,91.23
2024-01-30T23:15:24.593Z,93.17
2024-01-30T23:18:00.517Z,88.07
2024-01-30T23:20:33.940Z,92.47
2024-01-30T23:23:07.290Z,91.87
2024-01-30T23:25:41.039Z,93.77
2024-01-30T23:28:14.670Z,90.93
2024-01-30T23:30:49.552Z,92.57
2024-01-30T23:33:25.294Z,89.43
2024-01-30T23:35:59.285Z,92.97
2024-01-30T23:38:32.704Z,90.57
2024-01-30T23:41:05.916Z,90.63
2024-01-30T23:43:39.474Z,89.47
2024-01-30T23:46:12.891Z,93.43
2024-01-30T23:48:48.553Z,92.53
2024-01-30T23:51:38.115Z,96.40
2024-01-30T23:54:11.823Z,94.13
2024-01-30T23:56:45.404Z,91.10
2024-01-30T23:59:18.660Z,91.37
